Aérodrome :
LOGIN :

S'inscrire | Disclaimer

   EN    FR    IT 

 










Légende :    VFR   VFR Marginal   IFR   IFR Intensif   IFR Très Intensif
Visi : 
Plafond : 
>= 8 km
>= 3000ft
5 à 8 km
1000 à 3000 ft
1500m à 5 km
500 à 1000 ft
800 à 1500m
200 à 500 ft
< 800m
< 200 ft
Symboles :   Orages  Brouillard  Fortes neiges  Fortes précipitations  Vent > 20 kt
SIGMETs :   Divers  Orages  Givrage  Turbulence  Onde Orograph.  Cendres Volcan.







- Altitude de l'aérodrome : 313 ft
- Code IATA : LEH
- Voir les cartes d'approche


LFOH - Le Havre Octeville

DERNIER METAR :
  • 152200Z AUTO 20009KT 9999 BKN026 OVC035 06/05 Q1007

METARs EXPIRÉS :
  • 152130Z AUTO 19009KT 160V220 9999 FEW010 BKN030 06/05 Q1007
  • 152100Z AUTO 20008KT 160V250 9999 BKN011 BKN018 BKN041 05/04 Q1007
  • 152030Z AUTO 16006KT 130V200 7000 BKN003 BKN008 OVC012 03/03 Q1007
  • 152000Z AUTO 14008KT 120V190 9000 OVC003 03/02 Q1007

TAF AMD TAF LFOH
Valide du 15 à 18h jusqu'au 16 à 12h UTC


151816Z 1518/1612 13017KT 7000 RA OVC007
BECMG 1520/1522 22012KT NSW BKN040
ATIS : +33 2 35 54 64 93
Pas de NOTAMs connus pour ce terrain.
2 SIGMETs publiés pour la FIR Paris (LFFF) :
 
Givrage fort avec pluie surfondue
LFFF SIGMET 7 VALID 152000/160000 LFPW
LFFF PARIS FIR/UIR SEV ICE (FZRA) FCST WI N5100 E00145 - N5115 E00200 - N4930 E00600 - N4900 E00445 - N4830 E00530 - N4730 E00415 - N4630 E00445 - N4630 E00400 - N4815 E00400 - N4945 E00145 - N5100 E00145 SFC/FL020 MOV E 15KT NC=
Turbulence forte
LFFF SIGMET 6 VALID 151900/152300 LFPW
LFFF PARIS FIR/UIR SEV TURB FCST WI N5000 W00015 - N5115 E00200 - N5015 E00415 - N5000 E00400 - N5000 E00145 - N4930 E00030 - N5000 W00015 SFC/FL050 MOV NE 20KT NC=



MET'MAP, la Météo Aéronautique d'un coup d'oeil ! - Copyright ORBIFLY Décembre 2007 - Disclaimer

ORBIFLY MET'MAP TEAM :

Programmation & Développement : Alexandra Zaïnal
Conception & Développement : Baudouin d'Aumeries
Co-Programmation & Développement : Marc-Olivier Méhu
Soutien technique & logistique : Manuel Goepfert

Contact : metmap@orbifly.com




SOURCES & CREDITS :

   NOAA